Redondo, Valles Caldera, New Mexico Weather observations

Data are for 10 minute period ending at time listed.
 Day   Time   Solar   Ave.   Ave.  Ave.  Vector  Max.   Baro.   Total    
  of    of     Rad.   Air    Rel.  Wind   Wind   Wind  Press.  Precip.   
Year   Day            Temp.  Hum.  Speed  Dir.   Gust                    
2016   (MST)  Kw/m2    F      %     mph   deg.    mph    mb.     in.     
-------------------------------------------------------------------------
 236    4:30   0.00   43.8    79    0.1   319     4.2   694.2    0.00 
 236    4:40   0.00   43.5    79    0.5   312     7.2   694.3    0.00 
 236    4:50   0.00   43.4    80    0.3   308     5.4   694.3    0.00 
 236    5:00   0.00   43.5    79    0.1   316     2.4   694.3    0.00 
 236    5:10   0.00   43.6    80    0.2   309     4.8   694.4    0.00 
 236    5:20   0.00   43.9    79    0.2   306     7.8   694.5    0.00 
 236    5:30   0.00   43.8    79    0.0   289     1.8   694.5    0.00 
 236    5:40   0.01   43.5    82    0.1   276     1.8   694.7    0.00 
 236    5:50   0.01   43.1    84    0.0   320     1.8   694.7    0.00 
 236    6:00   0.01   43.0    85    0.0     0     0.0   694.8    0.00 
 236    6:10   0.02   43.1    85    0.0   313     1.8   694.8    0.00 
 236    6:20   0.02   43.4    84    0.0   270     1.8   694.9    0.00 
 236    6:30   0.06   43.8    84    0.1   283     2.4   695.0    0.00 
 236    6:40   0.14   45.1    81    0.2   289     5.4   695.0    0.00 
 236    6:50   0.20   46.9    77    0.1   283     3.6   695.1    0.00 
 236    7:00   0.22   47.6    76    0.1   265     2.4   695.1    0.00 
 236    7:10   0.20   48.2    74    0.0   268     1.8   695.2    0.00 
 236    7:20   0.15   48.1    75    0.0   225     1.2   695.2    0.00 
 236    7:30   0.22   48.5    76    0.0   287     1.2   695.3    0.00 
 236    7:40   0.28   49.9    72    0.0     0     0.0   695.4    0.00 
 236    7:50   0.42   50.5    71    0.1   268     2.4   695.4    0.00 
 236    8:00   0.45   50.7    70    0.0   257     2.4   695.5    0.00 
 236    8:10   0.49   50.4    71    0.0   253     1.2   695.4    0.00 
 236    8:20   0.52   50.7    72    0.1   285     4.2   695.4    0.00 
 236    8:30   0.56   51.4    71    0.0   284     1.8   695.5    0.00 
 236    8:40   0.60   52.0    70    0.1   274     2.4   695.6    0.00 
 236    8:50   0.70   53.5    68    0.3   298     6.0   695.7    0.00 
 236    9:00   0.65   52.7    70    0.1   302     3.6   695.7    0.00 
 236    9:10   0.69   52.5    70    0.4   257     7.8   695.7    0.00 
 236    9:20   0.59   51.2    73    0.0   264     1.2   695.8    0.00 
 236    9:30   0.56   52.0    72    0.0   255     1.8   695.8    0.00 
 236    9:40   0.49   52.2    71    0.1   264     2.4   695.9    0.00 
 236    9:50   0.49   51.1    74    0.0   334     1.2   695.9    0.00 
 236   10:00   0.97   53.8    70    0.3   299     5.4   695.9    0.00 
 236   10:10   0.97   55.2    66    0.6   265     7.2   695.8    0.00 
 236   10:20   0.72   54.1    69    0.9   284    10.8   695.8    0.01 
 236   10:30   0.67   52.6    71    0.4   283     6.6   695.7    0.00 
 236   10:40   0.94   53.9    68    1.3   279     9.0   695.8    0.00 
 236   10:50   1.09   55.8    64    2.5   297    10.8   695.7    0.00 
 236   11:00   0.99   55.9    62    1.6   299    10.8   695.7    0.00 
 236   11:10   0.86   55.5    63    2.9   304    10.2   695.7    0.00 
 236   11:20   0.56   54.2    62    3.9   294    11.9   695.7    0.00 
 236   11:30   1.10   54.9    62    3.2   285    10.8   695.6    0.00 
 236   11:40   1.10   55.9    59    2.3   246     9.6   695.5    0.00 
 236   11:50   1.03   56.0    58    3.6   233    10.2   695.5    0.00 
 236   12:00   0.84   55.9    61    3.0   285     9.0   695.5    0.00 
 236   12:10   0.85   54.6    63    2.7   278    11.3   695.5    0.00 
 236   12:20   0.94   55.6    60    3.5   246    11.3   695.4    0.00 
 236   12:30   0.86   54.7    62    2.9   232     9.0   695.2    0.00 
 236   12:40   1.01   55.3    60    3.1   254    10.2   695.2    0.00 
 236   12:50   0.99   56.2    56    3.4   230     9.6   695.2    0.00 
 236   13:00   1.04   56.7    53    3.0   257     9.0   695.1    0.00 
 236   13:10   0.71   57.5    51    3.3   254     9.6   694.9    0.00 
 236   13:20   0.48   56.2    49    2.9   231     9.0   694.9    0.00 
 236   13:30   0.17   53.6    55    2.5   268     8.4   694.9    0.00 
 236   13:40   0.19   53.0    58    2.5   224    10.8   694.9    0.00 
 236   13:50   0.22   53.0    62    1.3   221    11.3   695.0    0.00 
 236   14:00   0.14   52.3    65    3.0   268    11.9   695.0    0.00 
 236   14:10   0.10   51.0    67    3.5   277     9.6   695.0    0.00 
 236   14:20   0.16   50.8    68    5.7   272    14.9   694.9    0.00 
 236   14:30   0.03   47.2    85    6.0   306    19.7   695.1    0.00 
 236   14:40   0.08   44.3    93    3.3   307    12.5   695.2    0.01 
 236   14:50   0.13   44.3    95    3.5   305    13.7   695.2    0.00 
 236   15:00   0.22   44.5    96    2.6   292    10.2   695.3    0.00 
 236   15:10   0.43   45.8    95    2.1   273     9.0   695.2    0.00 
 236   15:20   0.65   48.6    85    1.4   279     6.0   695.0    0.00 
 236   15:30   0.67   52.4    73    1.0   301     6.0   694.8    0.00 
 236   15:40   0.60   53.7    65    1.1   303     6.6   694.5    0.00 
 236   15:50   0.61   54.5    60    2.3   278    11.3   694.4    0.00 
 236   16:00   0.58   53.6    62    2.3   276     9.0   694.4    0.00 
 236   16:10   0.55   54.4    58    3.7   295    11.3   694.4    0.00 
 236   16:20   0.47   55.0    55    5.4   304    12.5   694.4    0.00 
 236   16:30   0.36   54.2    56    5.5   310    13.7   694.4    0.00 
 236   16:40   0.43   55.6    55    3.4   306    12.5   694.5    0.00 
 236   16:50   0.40   56.0    52    3.9   298    10.2   694.5    0.00 
 236   17:00   0.36   55.2    53    3.8   301     8.4   694.5    0.00 
 236   17:10   0.32   56.6    50    3.4   315     9.0   694.5    0.00 
 236   17:20   0.28   55.6    52    3.5   305     7.8   694.5    0.00 
 236   17:30   0.25   55.4    53    2.3   292     9.0   694.5    0.00 
 236   17:40   0.22   53.4    57    3.5   278    11.9   694.5    0.00 
 236   17:50   0.14   52.9    57    2.8   294     7.2   694.5    0.00 
 236   18:00   0.12   52.2    59    2.7   299     7.8   694.5    0.00 
 236   18:10   0.07   50.8    63    3.0   300     8.4   694.6    0.00 
 236   18:20   0.02   49.0    66    2.3   314     7.2   694.6    0.00 
 236   18:30   0.01   47.8    70    3.2   315     8.4   694.7    0.00 
 236   18:40   0.00   47.3    72    3.0   315     8.4   694.7    0.00 
 236   18:50   0.00   47.0    72    2.1   310     6.6   694.8    0.00 
 236   19:00   0.00   46.6    74    2.9   308    11.9   694.8    0.00 
 236   19:10   0.00   46.2    77    1.7   311     7.2   694.8    0.00 
 236   19:20   0.00   45.9    80    0.4   278     6.0   694.9    0.00 
 236   19:30   0.00   44.6    82    0.1   306     3.0   695.0    0.00 
 236   19:40   0.00   43.6    80    0.1   241     2.4   694.9    0.00 
 236   19:50   0.00   43.2    80    0.1   292     3.6   695.0    0.00 
 236   20:00   0.00   43.0    84    0.0   303     1.8   695.0    0.00 
 236   20:10   0.00   42.7    85    0.0     0     0.0   695.1    0.00 
 236   20:20   0.00   42.1    86    0.0     0     0.0   695.1    0.00 
 236   20:30   0.00   42.1    86    0.0   289     1.2   695.1    0.00 
 236   20:40   0.00   42.3    84    0.2   307     3.0   695.1    0.00 
 236   20:50   0.00   42.5    83    0.6   307     4.8   695.1    0.00 
 236   21:00   0.00   42.4    84    0.0     0     0.0   695.2    0.00 
 236   21:10   0.00   41.9    86    0.0   286     1.8   695.3    0.00 
 236   21:20   0.00   41.4    87    0.0   300     1.8   695.2    0.00 
 236   21:30   0.00   41.0    89    0.0   257     1.2   695.2    0.00 
 236   21:40   0.00   41.4    92    0.1   329     1.8   695.1    0.00 
 236   21:50   0.00   41.8    93    0.0   278     1.2   695.2    0.00 
 236   22:00   0.00   41.6    92    0.0     0     0.0   695.2    0.00 
 236   22:10   0.00   40.9    92    0.0   347     1.2   695.1    0.00 
 236   22:20   0.00   41.0    91    0.1   295     1.8   695.0    0.00 
 236   22:30   0.00   41.2    90    0.4   300     4.2   694.9    0.00 
 236   22:40   0.00   41.6    87    0.1   320     3.6   694.8    0.00 
 236   22:50   0.00   41.7    84    0.1   277     1.8   694.8    0.00 
 236   23:00   0.00   42.1    81    0.2   285     4.2   694.8    0.00 
 236   23:10   0.00   42.3    79    0.0     0     0.0   694.8    0.00 
 236   23:20   0.00   42.0    80    0.0     0     0.0   694.7    0.00 
 236   23:30   0.00   41.4    82    0.0     0     0.0   694.8    0.00 
 236   23:40   0.00   40.5    83    0.0   312     1.2   694.9    0.00 
 236   23:50   0.00   41.4    80    0.1   315     4.2   694.9    0.00 
 237    0:00   0.00   41.8    79    0.0     0     0.0   695.0    0.00 
 237    0:10   0.00   42.5    77    0.0   284     1.2   695.0    0.00 
 237    0:20   0.00   42.7    77    0.0   269     1.2   695.0    0.00 
 237    0:30   0.00   42.6    77    0.1   291     1.8   694.9    0.00 
 237    0:40   0.00   42.3    78    0.0     0     0.0   694.9    0.00 
 237    0:50   0.00   41.8    79    0.0     0     0.0   694.8    0.00 
 237    1:00   0.00   41.3    80    0.0     0     0.0   694.7    0.00 
 237    1:10   0.00   41.7    80    0.0     0     0.0   694.6    0.00 
 237    1:20   0.00   41.4    81    0.0     0     0.0   694.5    0.00 
 237    1:30   0.00   41.0    82    0.0     0     0.0   694.5    0.00 
 237    1:40   0.00   40.9    82    0.0     0     0.0   694.5    0.00 
 237    1:50   0.00   40.9    82    0.0     0     0.0   694.5    0.00 
 237    2:00   0.00   41.1    80    0.0   276     1.2   694.5    0.00 
 237    2:10   0.00   41.0    81    0.0     0     0.0   694.5    0.00 
 237    2:20   0.00   40.6    82    0.0     0     0.0   694.5    0.00 
 237    2:30   0.00   40.6    83    0.0     0     0.0   694.4    0.00 
 237    2:40   0.00   40.9    83    0.0     0     0.0   694.4    0.00 
 237    2:50   0.00   41.3    82    0.0   281     1.2   694.3    0.00 
 237    3:00   0.00   41.0    82    0.1   303     1.8   694.2    0.00 
 237    3:10   0.00   41.1    82    0.1   290     1.8   694.2    0.00 
 237    3:20   0.00   40.7    82    0.0     0     0.0   694.1    0.00 
 237    3:30   0.00   40.5    83    0.0     0     0.0   694.0    0.00 
 237    3:40   0.00   40.4    83    0.0   280     1.2   693.9    0.00 
 237    3:50   0.00   40.7    82    0.0     0     0.0   693.9    0.00 
 237    4:00   0.00   40.6    81    0.0     0     0.0   693.9    0.00 
 237    4:10   0.00   40.7    81    0.0     0     0.0   693.9    0.00 
 237    4:20   0.00   40.5    80    0.0     0     0.0   693.9    0.00 

Return to Redondo, Valles Caldera graphs page.


Western Regional Climate Center,wrcc@dri.edu